sensor_id;sensor_type;location;lat;lon;timestamp;temperature;humidity
12119;DHT22;6123;48.864;9.200;2024-03-08T00:00:11;3.70;99.90
12119;DHT22;6123;48.864;9.200;2024-03-08T00:02:41;3.70;99.90
12119;DHT22;6123;48.864;9.200;2024-03-08T00:05:07;3.70;99.90
12119;DHT22;6123;48.864;9.200;2024-03-08T00:07:37;3.60;99.90
12119;DHT22;6123;48.864;9.200;2024-03-08T00:10:04;3.60;99.90
12119;DHT22;6123;48.864;9.200;2024-03-08T00:12:30;3.60;99.90
12119;DHT22;6123;48.864;9.200;2024-03-08T00:14:56;3.60;99.90
12119;DHT22;6123;48.864;9.200;2024-03-08T00:17:21;3.50;99.90
12119;DHT22;6123;48.864;9.200;2024-03-08T00:19:50;3.50;99.90
12119;DHT22;6123;48.864;9.200;2024-03-08T00:22:16;3.50;99.90
12119;DHT22;6123;48.864;9.200;2024-03-08T00:24:42;3.50;99.90
12119;DHT22;6123;48.864;9.200;2024-03-08T00:27:08;3.40;99.90
12119;DHT22;6123;48.864;9.200;2024-03-08T00:29:34;3.40;99.90
12119;DHT22;6123;48.864;9.200;2024-03-08T00:32:00;3.50;99.90
12119;DHT22;6123;48.864;9.200;2024-03-08T00:34:26;3.40;99.90
12119;DHT22;6123;48.864;9.200;2024-03-08T00:36:52;3.30;99.90
12119;DHT22;6123;48.864;9.200;2024-03-08T00:39:18;3.30;99.90
12119;DHT22;6123;48.864;9.200;2024-03-08T00:41:46;3.30;99.90
12119;DHT22;6123;48.864;9.200;2024-03-08T00:44:11;3.30;99.90
12119;DHT22;6123;48.864;9.200;2024-03-08T00:46:37;3.30;99.90
12119;DHT22;6123;48.864;9.200;2024-03-08T00:49:03;3.30;99.90
12119;DHT22;6123;48.864;9.200;2024-03-08T00:51:29;3.30;99.90
12119;DHT22;6123;48.864;9.200;2024-03-08T00:53:54;3.30;99.90
12119;DHT22;6123;48.864;9.200;2024-03-08T00:56:20;3.30;99.90
12119;DHT22;6123;48.864;9.200;2024-03-08T00:58:46;3.20;99.90
12119;DHT22;6123;48.864;9.200;2024-03-08T01:01:13;3.20;99.90
12119;DHT22;6123;48.864;9.200;2024-03-08T01:03:43;3.10;99.90
12119;DHT22;6123;48.864;9.200;2024-03-08T01:06:08;3.10;99.90
12119;DHT22;6123;48.864;9.200;2024-03-08T01:08:34;3.10;99.90
12119;DHT22;6123;48.864;9.200;2024-03-08T01:11:00;3.20;99.90
12119;DHT22;6123;48.864;9.200;2024-03-08T01:13:25;3.30;99.90
12119;DHT22;6123;48.864;9.200;2024-03-08T01:15:51;3.30;99.90
12119;DHT22;6123;48.864;9.200;2024-03-08T01:18:17;3.20;99.90
12119;DHT22;6123;48.864;9.200;2024-03-08T01:20:42;3.10;99.90
12119;DHT22;6123;48.864;9.200;2024-03-08T01:23:08;3.00;99.90
12119;DHT22;6123;48.864;9.200;2024-03-08T01:25:34;2.90;99.90
12119;DHT22;6123;48.864;9.200;2024-03-08T01:27:59;3.00;99.90
12119;DHT22;6123;48.864;9.200;2024-03-08T01:30:25;2.90;99.90
12119;DHT22;6123;48.864;9.200;2024-03-08T01:32:50;2.90;99.90
12119;DHT22;6123;48.864;9.200;2024-03-08T01:35:16;2.80;99.90
12119;DHT22;6123;48.864;9.200;2024-03-08T01:37:41;2.80;99.90
12119;DHT22;6123;48.864;9.200;2024-03-08T01:40:07;2.80;99.90
12119;DHT22;6123;48.864;9.200;2024-03-08T01:42:34;2.80;99.90
12119;DHT22;6123;48.864;9.200;2024-03-08T01:45:06;2.80;99.90
12119;DHT22;6123;48.864;9.200;2024-03-08T01:47:32;2.70;99.90
12119;DHT22;6123;48.864;9.200;2024-03-08T01:49:59;2.70;99.90
12119;DHT22;6123;48.864;9.200;2024-03-08T01:52:27;2.70;99.90
12119;DHT22;6123;48.864;9.200;2024-03-08T01:54:54;2.70;99.90
12119;DHT22;6123;48.864;9.200;2024-03-08T01:57:20;2.70;99.90
12119;DHT22;6123;48.864;9.200;2024-03-08T01:59:46;2.70;99.90
12119;DHT22;6123;48.864;9.200;2024-03-08T02:02:14;2.60;99.90
12119;DHT22;6123;48.864;9.200;2024-03-08T02:04:42;2.60;99.90
12119;DHT22;6123;48.864;9.200;2024-03-08T02:07:07;2.60;99.90
12119;DHT22;6123;48.864;9.200;2024-03-08T02:09:33;2.50;99.90
12119;DHT22;6123;48.864;9.200;2024-03-08T02:11:58;2.50;99.90
12119;DHT22;6123;48.864;9.200;2024-03-08T02:14:24;2.50;99.90
12119;DHT22;6123;48.864;9.200;2024-03-08T02:16:50;2.50;99.90
12119;DHT22;6123;48.864;9.200;2024-03-08T02:19:16;2.50;99.90
12119;DHT22;6123;48.864;9.200;2024-03-08T02:21:42;2.50;99.90
12119;DHT22;6123;48.864;9.200;2024-03-08T02:24:08;2.50;99.90
12119;DHT22;6123;48.864;9.200;2024-03-08T02:26:34;2.50;99.90
12119;DHT22;6123;48.864;9.200;2024-03-08T02:29:00;2.40;99.90
12119;DHT22;6123;48.864;9.200;2024-03-08T02:31:25;2.40;99.90
12119;DHT22;6123;48.864;9.200;2024-03-08T02:33:51;2.30;99.90
12119;DHT22;6123;48.864;9.200;2024-03-08T02:36:16;2.30;99.90
12119;DHT22;6123;48.864;9.200;2024-03-08T02:38:42;2.30;99.90
12119;DHT22;6123;48.864;9.200;2024-03-08T02:41:08;2.30;99.90
12119;DHT22;6123;48.864;9.200;2024-03-08T02:43:34;2.20;99.90
12119;DHT22;6123;48.864;9.200;2024-03-08T02:46:00;2.20;99.90
12119;DHT22;6123;48.864;9.200;2024-03-08T02:48:25;2.20;99.90
12119;DHT22;6123;48.864;9.200;2024-03-08T02:50:51;2.20;99.90
12119;DHT22;6123;48.864;9.200;2024-03-08T02:53:16;2.20;99.90
12119;DHT22;6123;48.864;9.200;2024-03-08T02:55:44;2.10;99.90
12119;DHT22;6123;48.864;9.200;2024-03-08T02:58:09;2.10;99.90
12119;DHT22;6123;48.864;9.200;2024-03-08T03:00:36;2.10;99.90
12119;DHT22;6123;48.864;9.200;2024-03-08T03:03:02;2.20;99.90
12119;DHT22;6123;48.864;9.200;2024-03-08T03:05:29;2.10;99.90
12119;DHT22;6123;48.864;9.200;2024-03-08T03:07:57;2.10;99.90
12119;DHT22;6123;48.864;9.200;2024-03-08T03:10:24;2.10;99.90
12119;DHT22;6123;48.864;9.200;2024-03-08T03:12:49;2.10;99.90
12119;DHT22;6123;48.864;9.200;2024-03-08T03:15:16;2.00;99.90
12119;DHT22;6123;48.864;9.200;2024-03-08T03:17:48;2.00;99.90
12119;DHT22;6123;48.864;9.200;2024-03-08T03:20:14;2.00;99.90
12119;DHT22;6123;48.864;9.200;2024-03-08T03:22:40;1.90;99.90
12119;DHT22;6123;48.864;9.200;2024-03-08T03:25:07;1.90;99.90
12119;DHT22;6123;48.864;9.200;2024-03-08T03:27:33;2.00;99.90
12119;DHT22;6123;48.864;9.200;2024-03-08T03:29:59;1.90;99.90
12119;DHT22;6123;48.864;9.200;2024-03-08T03:32:44;1.90;99.90
12119;DHT22;6123;48.864;9.200;2024-03-08T03:35:13;1.90;99.90
12119;DHT22;6123;48.864;9.200;2024-03-08T03:37:38;1.90;99.90
12119;DHT22;6123;48.864;9.200;2024-03-08T03:40:06;1.90;99.90
12119;DHT22;6123;48.864;9.200;2024-03-08T03:42:33;1.80;99.90
12119;DHT22;6123;48.864;9.200;2024-03-08T03:44:59;1.80;99.90
12119;DHT22;6123;48.864;9.200;2024-03-08T03:47:25;1.80;99.90
12119;DHT22;6123;48.864;9.200;2024-03-08T03:49:52;1.80;99.90
12119;DHT22;6123;48.864;9.200;2024-03-08T03:52:19;1.80;99.90
12119;DHT22;6123;48.864;9.200;2024-03-08T03:54:44;1.70;99.90
12119;DHT22;6123;48.864;9.200;2024-03-08T03:57:10;1.70;99.90
12119;DHT22;6123;48.864;9.200;2024-03-08T03:59:37;1.80;99.90
12119;DHT22;6123;48.864;9.200;2024-03-08T04:02:03;1.80;99.90
12119;DHT22;6123;48.864;9.200;2024-03-08T04:04:29;1.80;99.90
12119;DHT22;6123;48.864;9.200;2024-03-08T04:06:54;1.80;99.90
12119;DHT22;6123;48.864;9.200;2024-03-08T04:09:20;1.80;99.90
12119;DHT22;6123;48.864;9.200;2024-03-08T04:11:48;1.80;99.90
12119;DHT22;6123;48.864;9.200;2024-03-08T04:14:13;1.70;99.90
12119;DHT22;6123;48.864;9.200;2024-03-08T04:16:39;1.70;99.90
12119;DHT22;6123;48.864;9.200;2024-03-08T04:19:04;1.70;99.90
12119;DHT22;6123;48.864;9.200;2024-03-08T04:21:30;1.70;99.90
12119;DHT22;6123;48.864;9.200;2024-03-08T04:23:56;1.70;99.90
12119;DHT22;6123;48.864;9.200;2024-03-08T04:26:21;1.60;99.90
12119;DHT22;6123;48.864;9.200;2024-03-08T04:28:47;1.60;99.90
12119;DHT22;6123;48.864;9.200;2024-03-08T04:31:12;1.50;99.90
12119;DHT22;6123;48.864;9.200;2024-03-08T04:33:38;1.50;99.90
12119;DHT22;6123;48.864;9.200;2024-03-08T04:36:04;1.50;99.90
12119;DHT22;6123;48.864;9.200;2024-03-08T04:38:30;1.50;99.90
12119;DHT22;6123;48.864;9.200;2024-03-08T04:40:57;1.50;99.90
12119;DHT22;6123;48.864;9.200;2024-03-08T04:43:22;1.40;99.90
12119;DHT22;6123;48.864;9.200;2024-03-08T04:45:51;1.50;99.90
12119;DHT22;6123;48.864;9.200;2024-03-08T04:48:16;1.40;99.90
12119;DHT22;6123;48.864;9.200;2024-03-08T04:50:42;1.40;99.90
12119;DHT22;6123;48.864;9.200;2024-03-08T04:53:07;1.50;99.90
12119;DHT22;6123;48.864;9.200;2024-03-08T04:55:34;1.40;99.90
12119;DHT22;6123;48.864;9.200;2024-03-08T04:58:00;1.40;99.90
12119;DHT22;6123;48.864;9.200;2024-03-08T05:00:25;1.40;99.90
12119;DHT22;6123;48.864;9.200;2024-03-08T05:02:51;1.40;99.90
12119;DHT22;6123;48.864;9.200;2024-03-08T05:05:18;1.40;99.90
12119;DHT22;6123;48.864;9.200;2024-03-08T05:07:44;1.40;99.90
12119;DHT22;6123;48.864;9.200;2024-03-08T05:10:11;1.40;99.90
12119;DHT22;6123;48.864;9.200;2024-03-08T05:12:36;1.40;99.90
12119;DHT22;6123;48.864;9.200;2024-03-08T05:15:04;1.40;99.90
12119;DHT22;6123;48.864;9.200;2024-03-08T05:17:30;1.40;99.90
12119;DHT22;6123;48.864;9.200;2024-03-08T05:19:55;1.30;99.90
12119;DHT22;6123;48.864;9.200;2024-03-08T05:22:21;1.30;99.90
12119;DHT22;6123;48.864;9.200;2024-03-08T05:24:47;1.30;99.90
12119;DHT22;6123;48.864;9.200;2024-03-08T05:27:12;1.30;99.90
12119;DHT22;6123;48.864;9.200;2024-03-08T05:29:38;1.30;99.90
12119;DHT22;6123;48.864;9.200;2024-03-08T05:32:04;1.20;99.90
12119;DHT22;6123;48.864;9.200;2024-03-08T05:34:29;1.30;99.90
12119;DHT22;6123;48.864;9.200;2024-03-08T05:36:55;1.30;99.90
12119;DHT22;6123;48.864;9.200;2024-03-08T05:39:21;1.30;99.90
12119;DHT22;6123;48.864;9.200;2024-03-08T05:41:46;1.20;99.90
12119;DHT22;6123;48.864;9.200;2024-03-08T05:44:13;1.30;99.90
12119;DHT22;6123;48.864;9.200;2024-03-08T05:46:39;1.30;99.90
12119;DHT22;6123;48.864;9.200;2024-03-08T05:49:06;1.30;99.90
12119;DHT22;6123;48.864;9.200;2024-03-08T05:51:32;1.30;99.90
12119;DHT22;6123;48.864;9.200;2024-03-08T05:54:02;1.30;99.90
12119;DHT22;6123;48.864;9.200;2024-03-08T05:56:29;1.30;99.90
12119;DHT22;6123;48.864;9.200;2024-03-08T05:58:56;1.40;99.90
12119;DHT22;6123;48.864;9.200;2024-03-08T06:01:22;1.40;99.90
12119;DHT22;6123;48.864;9.200;2024-03-08T06:03:47;1.40;99.90
12119;DHT22;6123;48.864;9.200;2024-03-08T06:06:14;1.40;99.90
12119;DHT22;6123;48.864;9.200;2024-03-08T06:08:43;1.40;99.90
12119;DHT22;6123;48.864;9.200;2024-03-08T06:11:09;1.50;99.90
12119;DHT22;6123;48.864;9.200;2024-03-08T06:13:35;1.60;99.90
12119;DHT22;6123;48.864;9.200;2024-03-08T06:16:01;1.80;99.90
12119;DHT22;6123;48.864;9.200;2024-03-08T06:18:30;1.70;99.90
12119;DHT22;6123;48.864;9.200;2024-03-08T06:20:55;1.60;99.90
12119;DHT22;6123;48.864;9.200;2024-03-08T06:23:21;1.70;99.90
12119;DHT22;6123;48.864;9.200;2024-03-08T06:25:47;1.70;99.90
12119;DHT22;6123;48.864;9.200;2024-03-08T06:28:13;1.80;99.90
12119;DHT22;6123;48.864;9.200;2024-03-08T06:30:39;1.80;99.90
12119;DHT22;6123;48.864;9.200;2024-03-08T06:33:05;1.80;99.90
12119;DHT22;6123;48.864;9.200;2024-03-08T06:35:30;1.90;99.90
12119;DHT22;6123;48.864;9.200;2024-03-08T06:37:58;1.90;99.90
12119;DHT22;6123;48.864;9.200;2024-03-08T06:40:23;1.90;99.90
12119;DHT22;6123;48.864;9.200;2024-03-08T06:42:49;1.90;99.90
12119;DHT22;6123;48.864;9.200;2024-03-08T06:45:17;1.90;99.90
12119;DHT22;6123;48.864;9.200;2024-03-08T06:47:46;2.00;99.90
12119;DHT22;6123;48.864;9.200;2024-03-08T06:50:12;2.00;99.90
12119;DHT22;6123;48.864;9.200;2024-03-08T06:52:37;2.10;99.90
12119;DHT22;6123;48.864;9.200;2024-03-08T06:55:04;2.20;99.90
12119;DHT22;6123;48.864;9.200;2024-03-08T06:57:31;2.30;99.90
12119;DHT22;6123;48.864;9.200;2024-03-08T06:59:56;2.40;99.90
12119;DHT22;6123;48.864;9.200;2024-03-08T07:02:23;2.60;99.90
12119;DHT22;6123;48.864;9.200;2024-03-08T07:04:50;2.60;99.90
12119;DHT22;6123;48.864;9.200;2024-03-08T07:07:15;2.60;99.90
12119;DHT22;6123;48.864;9.200;2024-03-08T07:09:45;2.70;99.90
12119;DHT22;6123;48.864;9.200;2024-03-08T07:12:10;2.80;99.90
12119;DHT22;6123;48.864;9.200;2024-03-08T07:14:38;2.80;99.90
12119;DHT22;6123;48.864;9.200;2024-03-08T07:17:07;2.80;99.90
12119;DHT22;6123;48.864;9.200;2024-03-08T07:19:36;2.90;99.90
12119;DHT22;6123;48.864;9.200;2024-03-08T07:22:04;2.50;99.90
12119;DHT22;6123;48.864;9.200;2024-03-08T07:24:29;3.00;99.90
12119;DHT22;6123;48.864;9.200;2024-03-08T07:27:13;3.10;99.90
12119;DHT22;6123;48.864;9.200;2024-03-08T07:29:39;3.20;99.90
12119;DHT22;6123;48.864;9.200;2024-03-08T07:32:05;3.30;99.90
12119;DHT22;6123;48.864;9.200;2024-03-08T07:34:50;3.40;99.90
12119;DHT22;6123;48.864;9.200;2024-03-08T07:37:17;3.40;99.90
12119;DHT22;6123;48.864;9.200;2024-03-08T07:39:43;3.50;99.90
12119;DHT22;6123;48.864;9.200;2024-03-08T07:42:11;3.60;99.90
12119;DHT22;6123;48.864;9.200;2024-03-08T07:44:37;3.60;99.90
12119;DHT22;6123;48.864;9.200;2024-03-08T07:47:03;3.70;99.90
12119;DHT22;6123;48.864;9.200;2024-03-08T07:49:29;3.70;99.90
12119;DHT22;6123;48.864;9.200;2024-03-08T07:51:56;3.80;99.90
12119;DHT22;6123;48.864;9.200;2024-03-08T07:54:22;3.80;99.90
12119;DHT22;6123;48.864;9.200;2024-03-08T07:56:47;3.80;99.90
12119;DHT22;6123;48.864;9.200;2024-03-08T07:59:13;3.90;99.90
12119;DHT22;6123;48.864;9.200;2024-03-08T08:01:38;3.90;99.90
12119;DHT22;6123;48.864;9.200;2024-03-08T08:04:04;3.90;99.90
12119;DHT22;6123;48.864;9.200;2024-03-08T08:06:30;4.00;99.90
12119;DHT22;6123;48.864;9.200;2024-03-08T08:08:59;4.00;99.90
12119;DHT22;6123;48.864;9.200;2024-03-08T08:11:27;4.00;99.90
12119;DHT22;6123;48.864;9.200;2024-03-08T08:13:54;4.10;99.90
12119;DHT22;6123;48.864;9.200;2024-03-08T08:16:22;4.00;99.90
12119;DHT22;6123;48.864;9.200;2024-03-08T08:18:48;4.00;99.90
12119;DHT22;6123;48.864;9.200;2024-03-08T08:21:14;4.00;99.90
12119;DHT22;6123;48.864;9.200;2024-03-08T08:23:39;4.10;99.90
12119;DHT22;6123;48.864;9.200;2024-03-08T08:26:05;4.10;99.90
12119;DHT22;6123;48.864;9.200;2024-03-08T08:28:32;4.10;99.90
12119;DHT22;6123;48.864;9.200;2024-03-08T08:30:58;4.20;99.90
12119;DHT22;6123;48.864;9.200;2024-03-08T08:33:25;4.20;99.90
12119;DHT22;6123;48.864;9.200;2024-03-08T08:35:51;4.20;99.90
12119;DHT22;6123;48.864;9.200;2024-03-08T08:38:19;4.20;99.90
12119;DHT22;6123;48.864;9.200;2024-03-08T08:40:45;4.10;99.90
12119;DHT22;6123;48.864;9.200;2024-03-08T08:43:12;4.20;99.90
12119;DHT22;6123;48.864;9.200;2024-03-08T08:45:38;4.20;99.90
12119;DHT22;6123;48.864;9.200;2024-03-08T08:48:04;4.20;99.90
12119;DHT22;6123;48.864;9.200;2024-03-08T08:50:30;4.20;99.90
12119;DHT22;6123;48.864;9.200;2024-03-08T08:52:56;4.30;99.90
12119;DHT22;6123;48.864;9.200;2024-03-08T08:55:22;4.30;99.90
12119;DHT22;6123;48.864;9.200;2024-03-08T08:57:51;4.30;99.90
12119;DHT22;6123;48.864;9.200;2024-03-08T09:00:20;4.50;99.90
12119;DHT22;6123;48.864;9.200;2024-03-08T09:02:47;4.70;99.90
12119;DHT22;6123;48.864;9.200;2024-03-08T09:05:13;4.80;99.90
12119;DHT22;6123;48.864;9.200;2024-03-08T09:07:45;4.90;99.90
12119;DHT22;6123;48.864;9.200;2024-03-08T09:10:11;4.80;99.90
12119;DHT22;6123;48.864;9.200;2024-03-08T09:12:38;4.60;99.90
12119;DHT22;6123;48.864;9.200;2024-03-08T09:15:05;4.70;99.90
12119;DHT22;6123;48.864;9.200;2024-03-08T09:17:32;4.80;99.90
12119;DHT22;6123;48.864;9.200;2024-03-08T09:19:58;4.70;99.90
12119;DHT22;6123;48.864;9.200;2024-03-08T09:22:24;4.70;99.90
12119;DHT22;6123;48.864;9.200;2024-03-08T09:24:50;4.80;99.90
12119;DHT22;6123;48.864;9.200;2024-03-08T09:27:16;4.80;99.90
12119;DHT22;6123;48.864;9.200;2024-03-08T09:29:42;4.90;99.90
12119;DHT22;6123;48.864;9.200;2024-03-08T09:32:09;4.90;99.90
12119;DHT22;6123;48.864;9.200;2024-03-08T09:34:37;4.90;99.90
12119;DHT22;6123;48.864;9.200;2024-03-08T09:37:02;5.00;99.90
12119;DHT22;6123;48.864;9.200;2024-03-08T09:39:29;5.00;99.90
12119;DHT22;6123;48.864;9.200;2024-03-08T09:41:55;5.10;99.90
12119;DHT22;6123;48.864;9.200;2024-03-08T09:44:20;5.10;99.90
12119;DHT22;6123;48.864;9.200;2024-03-08T09:46:46;5.10;99.90
12119;DHT22;6123;48.864;9.200;2024-03-08T09:49:16;5.20;99.90
12119;DHT22;6123;48.864;9.200;2024-03-08T09:51:42;5.30;99.90
12119;DHT22;6123;48.864;9.200;2024-03-08T09:54:08;5.30;99.90
12119;DHT22;6123;48.864;9.200;2024-03-08T09:56:35;5.30;99.90
12119;DHT22;6123;48.864;9.200;2024-03-08T09:59:01;5.40;99.90
12119;DHT22;6123;48.864;9.200;2024-03-08T10:01:29;5.40;99.90
12119;DHT22;6123;48.864;9.200;2024-03-08T10:03:57;5.50;99.90
12119;DHT22;6123;48.864;9.200;2024-03-08T10:06:23;5.50;99.90
12119;DHT22;6123;48.864;9.200;2024-03-08T10:08:50;5.60;99.90
12119;DHT22;6123;48.864;9.200;2024-03-08T10:11:17;5.60;99.90
12119;DHT22;6123;48.864;9.200;2024-03-08T10:13:45;5.70;99.90
12119;DHT22;6123;48.864;9.200;2024-03-08T10:16:13;5.70;99.90
12119;DHT22;6123;48.864;9.200;2024-03-08T10:18:38;5.80;99.90
12119;DHT22;6123;48.864;9.200;2024-03-08T10:21:09;5.80;99.90
12119;DHT22;6123;48.864;9.200;2024-03-08T10:23:38;6.00;99.90
12119;DHT22;6123;48.864;9.200;2024-03-08T10:26:14;6.10;99.90
12119;DHT22;6123;48.864;9.200;2024-03-08T10:28:45;6.20;99.90
12119;DHT22;6123;48.864;9.200;2024-03-08T10:31:10;6.20;99.90
12119;DHT22;6123;48.864;9.200;2024-03-08T10:33:37;6.20;99.90
12119;DHT22;6123;48.864;9.200;2024-03-08T10:36:07;6.30;99.90
12119;DHT22;6123;48.864;9.200;2024-03-08T10:38:36;6.50;99.90
12119;DHT22;6123;48.864;9.200;2024-03-08T10:41:03;6.80;99.90
12119;DHT22;6123;48.864;9.200;2024-03-08T10:43:33;7.00;99.90
12119;DHT22;6123;48.864;9.200;2024-03-08T10:49:09;6.70;99.90
12119;DHT22;6123;48.864;9.200;2024-03-08T10:51:37;6.90;99.90
12119;DHT22;6123;48.864;9.200;2024-03-08T10:54:04;6.90;99.90
12119;DHT22;6123;48.864;9.200;2024-03-08T10:56:32;7.00;99.90
12119;DHT22;6123;48.864;9.200;2024-03-08T10:58:58;7.00;99.90
12119;DHT22;6123;48.864;9.200;2024-03-08T11:01:23;7.30;99.90
12119;DHT22;6123;48.864;9.200;2024-03-08T11:03:51;7.40;99.90
12119;DHT22;6123;48.864;9.200;2024-03-08T11:06:31;7.40;99.90
12119;DHT22;6123;48.864;9.200;2024-03-08T11:09:39;7.30;99.90
12119;DHT22;6123;48.864;9.200;2024-03-08T11:12:39;7.80;99.90
12119;DHT22;6123;48.864;9.200;2024-03-08T11:15:12;7.80;99.90
12119;DHT22;6123;48.864;9.200;2024-03-08T11:20:12;7.70;99.90
12119;DHT22;6123;48.864;9.200;2024-03-08T11:22:48;7.80;99.90
12119;DHT22;6123;48.864;9.200;2024-03-08T11:25:39;7.80;99.90
12119;DHT22;6123;48.864;9.200;2024-03-08T11:28:09;8.10;99.90
12119;DHT22;6123;48.864;9.200;2024-03-08T11:30:36;8.10;99.90
12119;DHT22;6123;48.864;9.200;2024-03-08T11:33:03;7.90;99.90
12119;DHT22;6123;48.864;9.200;2024-03-08T11:35:29;7.80;99.90
12119;DHT22;6123;48.864;9.200;2024-03-08T11:37:58;7.60;99.90
12119;DHT22;6123;48.864;9.200;2024-03-08T11:40:26;8.30;99.90
12119;DHT22;6123;48.864;9.200;2024-03-08T11:42:51;9.70;99.90
12119;DHT22;6123;48.864;9.200;2024-03-08T11:45:18;10.80;92.80
12119;DHT22;6123;48.864;9.200;2024-03-08T11:47:46;11.50;91.00
12119;DHT22;6123;48.864;9.200;2024-03-08T11:50:13;12.10;82.60
12119;DHT22;6123;48.864;9.200;2024-03-08T11:52:39;11.70;79.90
12119;DHT22;6123;48.864;9.200;2024-03-08T11:55:05;11.60;82.80
12119;DHT22;6123;48.864;9.200;2024-03-08T11:57:31;11.80;80.30
12119;DHT22;6123;48.864;9.200;2024-03-08T11:59:58;11.60;85.70
12119;DHT22;6123;48.864;9.200;2024-03-08T12:02:31;11.60;81.10
12119;DHT22;6123;48.864;9.200;2024-03-08T12:04:57;11.40;87.10
12119;DHT22;6123;48.864;9.200;2024-03-08T12:07:25;11.70;83.50
12119;DHT22;6123;48.864;9.200;2024-03-08T12:10:20;11.90;82.90
12119;DHT22;6123;48.864;9.200;2024-03-08T12:12:52;11.70;86.50
12119;DHT22;6123;48.864;9.200;2024-03-08T12:15:19;11.70;83.40
12119;DHT22;6123;48.864;9.200;2024-03-08T12:17:47;11.60;87.10
12119;DHT22;6123;48.864;9.200;2024-03-08T12:20:21;11.50;85.00
12119;DHT22;6123;48.864;9.200;2024-03-08T12:22:48;11.10;87.00
12119;DHT22;6123;48.864;9.200;2024-03-08T12:25:15;11.20;89.40
12119;DHT22;6123;48.864;9.200;2024-03-08T12:27:44;11.40;90.20
12119;DHT22;6123;48.864;9.200;2024-03-08T12:30:26;11.90;83.70
12119;DHT22;6123;48.864;9.200;2024-03-08T12:32:59;11.80;81.80
12119;DHT22;6123;48.864;9.200;2024-03-08T12:35:27;11.90;84.40
12119;DHT22;6123;48.864;9.200;2024-03-08T12:37:55;12.00;82.20
12119;DHT22;6123;48.864;9.200;2024-03-08T12:40:28;12.20;81.10
12119;DHT22;6123;48.864;9.200;2024-03-08T12:42:55;12.20;78.00
12119;DHT22;6123;48.864;9.200;2024-03-08T12:45:22;12.20;78.50
12119;DHT22;6123;48.864;9.200;2024-03-08T12:47:49;12.80;79.10
12119;DHT22;6123;48.864;9.200;2024-03-08T12:50:15;12.90;75.30
12119;DHT22;6123;48.864;9.200;2024-03-08T12:52:42;12.90;75.70
12119;DHT22;6123;48.864;9.200;2024-03-08T12:55:08;12.70;76.30
12119;DHT22;6123;48.864;9.200;2024-03-08T12:57:35;12.90;75.50
12119;DHT22;6123;48.864;9.200;2024-03-08T13:00:03;13.10;72.80
12119;DHT22;6123;48.864;9.200;2024-03-08T13:02:30;13.00;72.30
12119;DHT22;6123;48.864;9.200;2024-03-08T13:04:58;12.90;70.60
12119;DHT22;6123;48.864;9.200;2024-03-08T13:07:24;13.20;71.70
12119;DHT22;6123;48.864;9.200;2024-03-08T13:09:53;13.20;69.30
12119;DHT22;6123;48.864;9.200;2024-03-08T13:12:20;13.50;70.50
12119;DHT22;6123;48.864;9.200;2024-03-08T13:14:46;13.80;67.60
12119;DHT22;6123;48.864;9.200;2024-03-08T13:17:13;13.90;64.90
12119;DHT22;6123;48.864;9.200;2024-03-08T13:19:38;13.60;64.90
12119;DHT22;6123;48.864;9.200;2024-03-08T13:22:04;14.00;62.30
12119;DHT22;6123;48.864;9.200;2024-03-08T13:24:30;13.60;61.00
12119;DHT22;6123;48.864;9.200;2024-03-08T13:26:56;13.60;60.80
12119;DHT22;6123;48.864;9.200;2024-03-08T13:29:22;13.70;64.20
12119;DHT22;6123;48.864;9.200;2024-03-08T13:31:48;13.60;63.70
12119;DHT22;6123;48.864;9.200;2024-03-08T13:34:17;13.90;63.40
12119;DHT22;6123;48.864;9.200;2024-03-08T13:36:43;14.30;60.00
12119;DHT22;6123;48.864;9.200;2024-03-08T13:39:09;14.50;59.70
12119;DHT22;6123;48.864;9.200;2024-03-08T13:41:46;14.40;59.10
12119;DHT22;6123;48.864;9.200;2024-03-08T13:44:12;14.20;57.20
12119;DHT22;6123;48.864;9.200;2024-03-08T13:46:38;14.40;60.60
12119;DHT22;6123;48.864;9.200;2024-03-08T13:49:05;14.20;57.50
12119;DHT22;6123;48.864;9.200;2024-03-08T13:51:33;14.20;57.60
12119;DHT22;6123;48.864;9.200;2024-03-08T13:53:59;14.20;55.10
12119;DHT22;6123;48.864;9.200;2024-03-08T13:56:26;14.10;55.60
12119;DHT22;6123;48.864;9.200;2024-03-08T13:58:52;14.40;55.20
12119;DHT22;6123;48.864;9.200;2024-03-08T14:01:17;14.10;57.40
12119;DHT22;6123;48.864;9.200;2024-03-08T14:03:43;13.90;56.90
12119;DHT22;6123;48.864;9.200;2024-03-08T14:06:09;14.40;57.70
12119;DHT22;6123;48.864;9.200;2024-03-08T14:08:35;14.40;57.30
12119;DHT22;6123;48.864;9.200;2024-03-08T14:11:04;14.50;54.50
12119;DHT22;6123;48.864;9.200;2024-03-08T14:13:43;14.30;55.30
12119;DHT22;6123;48.864;9.200;2024-03-08T14:16:13;14.50;54.30
12119;DHT22;6123;48.864;9.200;2024-03-08T14:18:38;14.80;53.70
12119;DHT22;6123;48.864;9.200;2024-03-08T14:21:04;14.80;55.60
12119;DHT22;6123;48.864;9.200;2024-03-08T14:23:30;15.00;52.60
12119;DHT22;6123;48.864;9.200;2024-03-08T14:25:56;15.10;51.80
12119;DHT22;6123;48.864;9.200;2024-03-08T14:28:24;15.30;51.60
12119;DHT22;6123;48.864;9.200;2024-03-08T14:30:49;15.20;52.00
12119;DHT22;6123;48.864;9.200;2024-03-08T14:33:15;15.20;50.30
12119;DHT22;6123;48.864;9.200;2024-03-08T14:35:41;15.20;49.90
12119;DHT22;6123;48.864;9.200;2024-03-08T14:38:08;15.30;47.80
12119;DHT22;6123;48.864;9.200;2024-03-08T14:40:36;15.20;48.80
12119;DHT22;6123;48.864;9.200;2024-03-08T14:43:01;15.20;48.70
12119;DHT22;6123;48.864;9.200;2024-03-08T14:45:27;15.60;49.00
12119;DHT22;6123;48.864;9.200;2024-03-08T14:47:53;15.30;46.90
12119;DHT22;6123;48.864;9.200;2024-03-08T14:50:21;15.00;46.60
12119;DHT22;6123;48.864;9.200;2024-03-08T14:52:51;15.20;48.30
12119;DHT22;6123;48.864;9.200;2024-03-08T14:55:20;14.90;48.20
12119;DHT22;6123;48.864;9.200;2024-03-08T14:57:50;14.90;48.60
12119;DHT22;6123;48.864;9.200;2024-03-08T15:00:18;15.10;49.10
12119;DHT22;6123;48.864;9.200;2024-03-08T15:02:59;15.20;47.70
12119;DHT22;6123;48.864;9.200;2024-03-08T15:05:25;15.30;48.30
12119;DHT22;6123;48.864;9.200;2024-03-08T15:07:54;15.50;48.00
12119;DHT22;6123;48.864;9.200;2024-03-08T15:10:22;15.30;48.80
12119;DHT22;6123;48.864;9.200;2024-03-08T15:12:51;15.30;48.10
12119;DHT22;6123;48.864;9.200;2024-03-08T15:15:21;15.30;48.20
12119;DHT22;6123;48.864;9.200;2024-03-08T15:17:49;15.10;48.30
12119;DHT22;6123;48.864;9.200;2024-03-08T15:20:16;15.40;49.00
12119;DHT22;6123;48.864;9.200;2024-03-08T15:22:49;15.40;49.70
12119;DHT22;6123;48.864;9.200;2024-03-08T15:25:15;15.40;49.30
12119;DHT22;6123;48.864;9.200;2024-03-08T15:27:49;15.40;49.20
12119;DHT22;6123;48.864;9.200;2024-03-08T15:30:15;15.30;47.20
12119;DHT22;6123;48.864;9.200;2024-03-08T15:32:49;15.30;49.50
12119;DHT22;6123;48.864;9.200;2024-03-08T15:35:22;15.50;49.90
12119;DHT22;6123;48.864;9.200;2024-03-08T15:37:47;15.60;48.00
12119;DHT22;6123;48.864;9.200;2024-03-08T15:40:13;15.60;48.60
12119;DHT22;6123;48.864;9.200;2024-03-08T15:42:57;15.60;46.80
12119;DHT22;6123;48.864;9.200;2024-03-08T15:45:23;15.50;46.60
12119;DHT22;6123;48.864;9.200;2024-03-08T15:47:50;15.40;45.80
12119;DHT22;6123;48.864;9.200;2024-03-08T15:50:15;15.50;50.30
12119;DHT22;6123;48.864;9.200;2024-03-08T15:52:45;15.70;51.40
12119;DHT22;6123;48.864;9.200;2024-03-08T15:55:16;15.90;47.30
12119;DHT22;6123;48.864;9.200;2024-03-08T15:57:53;15.70;47.50
12119;DHT22;6123;48.864;9.200;2024-03-08T16:00:22;15.70;46.40
12119;DHT22;6123;48.864;9.200;2024-03-08T16:03:07;15.50;46.00